Aérodrome :
LOGIN :

S'inscrire | Disclaimer

   EN    FR    IT 

 










Légende :    VFR   VFR Marginal   IFR   IFR Intensif   IFR Très Intensif
Visi : 
Plafond : 
>= 8 km
>= 3000ft
5 à 8 km
1000 à 3000 ft
1500m à 5 km
500 à 1000 ft
800 à 1500m
200 à 500 ft
< 800m
< 200 ft
Symboles :   Orages  Brouillard  Fortes neiges  Fortes précipitations  Vent > 20 kt
SIGMETs :   Divers  Orages  Givrage  Turbulence  Onde Orograph.  Cendres Volcan.






- Altitude de l'aérodrome : 204 ft
- Code IATA : KSU


ENKB - Kristiansund , Kvernberget

DERNIER METAR :
  • 031250Z 03016KT 9999 BKN017 09/06 Q1010 RMK WIND 745FT 04024KT

METARs EXPIRÉS :
  • 031220Z 03016KT 9999 BKN017 09/06 Q1010 RMK WIND 745FT 04025KT
  • 031150Z 03015KT 9999 FEW007 BKN018 09/06 Q1011 RMK WIND 745FT 04025KT
  • 031120Z 03018KT 9999 FEW007 BKN017 09/06 Q1011 RMK WIND 745FT 04025KT
  • 031050Z 03019KT 9999 FEW009 BKN018 09/06 Q1011 RMK WIND 745FT 04027KT
  • 031020Z 03019KT 9999 SCT009 BKN017 09/06 Q1011 RMK WIND 745FT 04026KT

TAF TAF ENKB
Valide du 03 à 12h jusqu'au 03 à 21h UTC


031100Z 0312/0321 03017KT 9999 -RA SCT007 BKN015
TEMPO 0312/0321 4000 DZ BR SCT004 BKN007



MET'MAP, la Météo Aéronautique d'un coup d'oeil ! - Copyright ORBIFLY Décembre 2007 - Disclaimer

ORBIFLY MET'MAP TEAM :

Programmation & Développement : Alexandra Zaïnal
Sur une idée originale de : Baudouin d'Aumeries
Assistance à la programmation : Marc-Olivier Méhu
Soutien technique & logistique : Manuel Goepfert

Contact : metmap@orbifly.com




SOURCES & CREDITS :

   NOAA